Time;durP1;ratioP1;P1;durP2;ratioP2;P2;SDS_P1;SDS_P2;PMS_P1;PMS_P2;Temp;Humidity;BMP_temperature;BMP_pressure;BME280_temperature;BME280_humidity;BME280_pressure;Samples;Min_cycle;Max_cycle;Signal;HPM_P1;HPM_P2
2021/07/14 00:00:22;;;;;;;5.07;2.25;;;;;;;12.53;100.00;95346.44;1031246;28;20019;-68
2021/07/14 00:00:52;;;;;;;6.28;1.92;;;;;;;12.50;100.00;95357.53;1030371;28;20022;-67
2021/07/14 00:01:23;;;;;;;6.78;2.33;;;;;;;12.49;100.00;95356.75;1031257;28;20031;-67
2021/07/14 00:01:53;;;;;;;3.58;1.92;;;;;;;12.48;100.00;95359.69;1019748;28;20042;-68
2021/07/14 00:02:24;;;;;;;4.22;1.92;;;;;;;12.49;100.00;95358.59;1022799;29;20020;-68
2021/07/14 00:02:55;;;;;;;2.30;1.80;;;;;;;12.48;100.00;95363.09;1026299;28;20018;-69
2021/07/14 00:03:28;;;;;;;5.90;2.30;;;;;;;12.48;100.00;95368.34;1027133;28;20030;-67
2021/07/14 00:03:58;;;;;;;4.38;2.50;;;;;;;12.48;100.00;95372.84;1028458;28;20034;-68
2021/07/14 00:04:29;;;;;;;8.13;2.65;;;;;;;12.47;100.00;95374.69;1031426;28;20351;-67
2021/07/14 00:04:59;;;;;;;4.82;2.33;;;;;;;12.48;100.00;95381.50;1031134;28;20537;-69
2021/07/14 00:05:32;;;;;;;4.80;2.13;;;;;;;12.35;100.00;95361.16;1029131;28;20023;-68
2021/07/14 00:06:02;;;;;;;3.88;2.10;;;;;;;12.49;100.00;95388.31;1027197;28;20495;-67
2021/07/14 00:06:33;;;;;;;2.92;1.85;;;;;;;12.48;100.00;95386.78;1024792;28;20262;-69
2021/07/14 00:07:04;;;;;;;3.53;2.20;;;;;;;12.46;100.00;95383.63;1034464;28;20021;-68
2021/07/14 00:07:35;;;;;;;3.97;1.98;;;;;;;12.47;100.00;95385.22;1026874;28;20094;-67
2021/07/14 00:08:08;;;;;;;7.13;2.28;;;;;;;12.50;100.00;95387.25;1019315;29;20016;-69
2021/07/14 00:08:39;;;;;;;7.53;1.88;;;;;;;12.51;100.00;95385.44;1019232;29;20276;-67
2021/07/14 00:09:10;;;;;;;3.03;2.20;;;;;;;12.51;100.00;95380.16;1019096;29;20282;-67
2021/07/14 00:09:40;;;;;;;3.85;2.00;;;;;;;12.52;100.00;95373.06;1023609;28;20087;-66
2021/07/14 00:10:13;;;;;;;6.03;2.00;;;;;;;12.52;100.00;95360.66;1023044;28;20026;-68
2021/07/14 00:10:46;;;;;;;6.53;1.92;;;;;;;12.53;100.00;95364.84;1017940;29;21046;-67
2021/07/14 00:11:17;;;;;;;3.72;1.85;;;;;;;12.55;100.00;95356.69;1018641;29;20642;-68
2021/07/14 00:11:57;;;;;;;4.68;2.70;;;;;;;12.53;100.00;95349.06;1020946;29;20455;-67
2021/07/14 00:12:31;;;;;;;3.60;2.03;;;;;;;12.54;100.00;95349.84;1025540;28;20420;-68
2021/07/14 00:22:09;;;;;;;4.85;2.40;;;;;;;12.43;100.00;95365.78;1035882;28;20335;-68
2021/07/14 00:22:39;;;;;;;3.08;2.47;;;;;;;12.43;100.00;95373.66;1035262;28;20273;-68
2021/07/14 00:23:10;;;;;;;4.05;2.10;;;;;;;12.43;100.00;95371.03;1031076;28;21039;-68
2021/07/14 00:23:42;;;;;;;2.92;2.42;;;;;;;12.42;100.00;95369.47;1031053;28;20034;-67
2021/07/14 00:24:12;;;;;;;4.20;2.40;;;;;;;12.38;100.00;95368.47;1030625;28;20599;-68
2021/07/14 00:24:46;;;;;;;5.72;2.55;;;;;;;12.43;100.00;95376.28;1027265;28;20285;-68
2021/07/14 00:25:16;;;;;;;3.50;2.67;;;;;;;12.43;100.00;95378.16;1031136;28;20396;-68
2021/07/14 00:25:47;;;;;;;3.55;2.60;;;;;;;12.42;100.00;95382.63;1026626;28;20270;-67
2021/07/14 00:26:17;;;;;;;7.45;2.83;;;;;;;12.41;100.00;95375.81;1023193;28;20023;-67
2021/07/14 00:26:47;;;;;;;5.50;2.92;;;;;;;12.40;100.00;95384.75;1027299;28;20026;-68
2021/07/14 00:27:19;;;;;;;6.82;2.42;;;;;;;12.41;100.00;95383.72;1023252;28;20030;-68
2021/07/14 00:27:51;;;;;;;4.10;2.97;;;;;;;12.42;100.00;95381.84;1023046;28;20156;-68
2021/07/14 00:28:25;;;;;;;6.57;2.60;;;;;;;12.41;100.00;95386.34;1030984;28;20269;-69
2021/07/14 00:28:55;;;;;;;4.63;2.50;;;;;;;12.43;100.00;95388.66;1027887;28;20280;-68
2021/07/14 00:29:26;;;;;;;6.53;2.72;;;;;;;12.39;100.00;95388.47;1028943;28;21018;-68
2021/07/14 00:29:57;;;;;;;6.25;2.58;;;;;;;12.39;100.00;95383.19;1030912;28;20765;-68
2021/07/14 00:30:29;;;;;;;4.13;2.58;;;;;;;12.40;100.00;95387.38;1027136;28;20050;-69
2021/07/14 00:31:02;;;;;;;8.82;2.80;;;;;;;12.39;100.00;95393.72;1030641;28;20273;-68
2021/07/14 00:31:32;;;;;;;4.30;2.70;;;;;;;12.37;100.00;95389.78;1025300;28;20309;-69
2021/07/14 00:32:06;;;;;;;7.47;2.80;;;;;;;12.38;100.00;95389.53;1022980;28;20275;-68
2021/07/14 00:32:37;;;;;;;5.15;2.28;;;;;;;12.40;100.00;95394.50;1026627;28;20441;-67
2021/07/14 00:33:07;;;;;;;5.55;2.85;;;;;;;12.40;100.00;95390.00;1023891;28;20271;-67
2021/07/14 00:33:38;;;;;;;3.67;2.53;;;;;;;12.39;100.00;95388.47;1023847;28;20084;-69
2021/07/14 00:34:08;;;;;;;5.35;2.58;;;;;;;12.38;100.00;95386.91;1026937;28;20223;-66
2021/07/14 00:34:39;;;;;;;7.40;3.08;;;;;;;12.38;100.00;95380.84;1023197;28;20012;-68
2021/07/14 00:35:11;;;;;;;4.32;2.95;;;;;;;12.38;100.00;95379.00;1023070;28;20422;-68
2021/07/14 00:35:42;;;;;;;2.75;2.25;;;;;;;12.33;100.00;95371.16;1026948;28;20022;-68
2021/07/14 00:36:13;;;;;;;4.25;2.28;;;;;;;12.39;100.00;95383.19;1018627;29;20395;-68
2021/07/14 00:36:43;;;;;;;4.82;2.72;;;;;;;12.39;100.00;95380.56;1019890;28;20043;-68
2021/07/14 00:37:13;;;;;;;3.75;2.60;;;;;;;12.32;100.00;95368.81;1027085;28;20468;-68
2021/07/14 00:37:44;;;;;;;7.07;2.30;;;;;;;12.41;100.00;95380.28;1022953;28;20106;-67
2021/07/14 00:38:14;;;;;;;3.65;2.40;;;;;;;12.40;100.00;95383.97;1022975;28;20449;-68
2021/07/14 00:38:45;;;;;;;5.32;2.42;;;;;;;12.39;100.00;95383.19;1027281;28;20030;-68
2021/07/14 00:39:15;;;;;;;6.82;2.67;;;;;;;12.41;100.00;95386.34;1022473;28;20056;-68
2021/07/14 00:39:47;;;;;;;5.38;2.45;;;;;;;12.34;100.00;95375.38;1021719;28;20035;-68
2021/07/14 00:40:17;;;;;;;5.97;3.03;;;;;;;12.42;100.00;95384.47;1026920;28;20026;-66
2021/07/14 00:40:48;;;;;;;5.97;2.88;;;;;;;12.41;100.00;95390.81;1027243;28;20998;-67
2021/07/14 00:41:18;;;;;;;7.47;2.55;;;;;;;12.41;100.00;95385.56;1022976;28;20019;-69
2021/07/14 00:41:50;;;;;;;5.45;2.63;;;;;;;12.39;100.00;95385.81;1022996;28;20051;-68
2021/07/14 00:42:20;;;;;;;6.30;2.95;;;;;;;12.38;100.00;95381.63;1027074;28;20290;-68
2021/07/14 00:42:51;;;;;;;7.38;3.00;;;;;;;12.41;100.00;95393.44;1019228;29;20659;-68
2021/07/14 00:43:21;;;;;;;5.15;2.83;;;;;;;12.37;100.00;95390.56;1019402;29;20072;-68
2021/07/14 00:43:51;;;;;;;10.25;3.00;;;;;;;12.37;100.00;95387.94;1019503;29;20035;-68
2021/07/14 00:44:22;;;;;;;8.27;3.17;;;;;;;12.37;100.00;95387.94;1019593;29;20523;-69
2021/07/14 00:44:54;;;;;;;4.70;3.20;;;;;;;12.36;100.00;95393.50;1026476;28;20031;-68
2021/07/14 00:45:25;;;;;;;6.65;3.05;;;;;;;12.36;100.00;95386.38;1031318;28;20065;-68
2021/07/14 00:45:55;;;;;;;5.95;3.00;;;;;;;12.37;100.00;95393.22;1031452;28;20284;-67
2021/07/14 00:46:30;;;;;;;5.22;2.63;;;;;;;12.31;100.00;95391.72;1027129;28;20027;-68
2021/07/14 00:47:00;;;;;;;4.70;2.70;;;;;;;12.33;100.00;95389.59;1023258;29;20130;-69
2021/07/14 00:47:32;;;;;;;5.93;2.90;;;;;;;12.31;100.00;95393.53;1023840;28;20259;-68
2021/07/14 00:48:03;;;;;;;10.65;3.00;;;;;;;12.31;100.00;95394.34;1018268;29;20575;-67
2021/07/14 00:48:33;;;;;;;5.32;2.83;;;;;;;12.31;100.00;95394.34;1016130;29;20268;-67
2021/07/14 00:49:04;;;;;;;5.65;2.60;;;;;;;12.25;100.00;95380.47;1019525;29;20476;-68
2021/07/14 00:49:37;;;;;;;4.90;2.72;;;;;;;12.32;100.00;95388.03;1019515;28;20069;-68
2021/07/14 00:50:08;;;;;;;7.35;2.28;;;;;;;12.32;100.00;95380.13;1019981;29;20123;-68
2021/07/14 00:50:39;;;;;;;8.02;2.63;;;;;;;12.33;100.00;95386.94;1019339;29;20621;-68
2021/07/14 00:51:12;;;;;;;2.97;2.70;;;;;;;12.33;100.00;95384.31;1015269;29;20040;-67
2021/07/14 00:51:42;;;;;;;5.30;2.35;;;;;;;12.32;100.00;95379.34;1016369;29;20024;-68
2021/07/14 00:52:16;;;;;;;5.90;2.67;;;;;;;12.33;100.00;95376.44;1023851;28;20267;-67
2021/07/14 00:52:46;;;;;;;5.38;3.10;;;;;;;12.34;100.00;95379.84;1029004;28;20313;-68
2021/07/14 00:53:16;;;;;;;7.28;2.90;;;;;;;12.33;100.00;95379.06;1026618;28;20038;-68
2021/07/14 00:53:47;;;;;;;5.38;2.50;;;;;;;12.32;100.00;95374.88;1023346;29;20035;-68
2021/07/14 00:54:17;;;;;;;6.50;2.60;;;;;;;12.31;100.00;95373.31;1023346;29;20027;-68
2021/07/14 00:54:50;;;;;;;4.97;3.13;;;;;;;12.31;100.00;95378.56;1023211;28;20030;-69
2021/07/14 00:55:21;;;;;;;5.68;3.28;;;;;;;12.24;100.00;95368.41;1027613;28;20583;-69
2021/07/14 00:55:51;;;;;;;17.05;4.07;;;;;;;12.32;100.00;95381.97;1027193;28;20305;-67
2021/07/14 00:56:22;;;;;;;5.95;3.33;;;;;;;12.30;100.00;95384.88;1026873;28;20041;-67
2021/07/14 00:56:52;;;;;;;6.47;3.67;;;;;;;12.31;100.00;95397.00;1027454;28;20022;-68
2021/07/14 00:57:26;;;;;;;7.20;3.45;;;;;;;12.29;100.00;95403.59;1027235;28;20038;-68
2021/07/14 00:57:56;;;;;;;7.40;3.30;;;;;;;12.28;100.00;95397.53;1031410;28;20034;-68
2021/07/14 00:58:27;;;;;;;7.18;3.30;;;;;;;12.26;100.00;95399.66;1030892;28;20657;-68
2021/07/14 00:58:58;;;;;;;3.78;2.90;;;;;;;12.22;100.00;95403.94;1031802;28;20348;-67
2021/07/14 00:59:28;;;;;;;3.75;2.75;;;;;;;12.27;100.00;95411.75;1031246;28;20037;-68
2021/07/14 00:59:58;;;;;;;5.40;3.50;;;;;;;12.27;100.00;95409.13;1022859;29;20027;-68
2021/07/14 01:00:29;;;;;;;6.18;3.00;;;;;;;12.27;100.00;95415.19;1019021;29;20035;-67
2021/07/14 01:01:00;;;;;;;4.90;2.60;;;;;;;12.27;100.00;95412.56;1023439;28;20055;-68
2021/07/14 01:01:31;;;;;;;9.52;3.25;;;;;;;12.28;100.00;95418.59;1026977;28;20019;-69
2021/07/14 01:02:02;;;;;;;9.82;3.28;;;;;;;12.29;100.00;95407.00;1026733;28;20895;-68
2021/07/14 01:02:33;;;;;;;4.78;2.92;;;;;;;12.29;100.00;95414.88;1023125;29;20305;-69
2021/07/14 01:03:03;;;;;;;8.23;3.53;;;;;;;12.29;100.00;95404.38;1019326;29;20271;-68
2021/07/14 01:03:40;;;;;;;8.80;3.10;;;;;;;12.30;100.00;95407.78;1009784;29;20057;-68
2021/07/14 01:04:15;;;;;;;5.88;3.20;;;;;;;12.31;100.00;95406.69;1017130;29;20043;-68
2021/07/14 01:04:48;;;;;;;13.02;3.13;;;;;;;12.26;100.00;95402.28;1020834;29;20318;-68
2021/07/14 01:05:22;;;;;;;10.38;3.30;;;;;;;12.29;100.00;95404.38;1014578;29;20352;-68
2021/07/14 01:05:53;;;;;;;6.60;3.25;;;;;;;12.23;100.00;95397.59;1015149;29;20268;-68
2021/07/14 01:06:27;;;;;;;8.10;3.28;;;;;;;12.31;100.00;95407.50;1019510;29;20721;-68
2021/07/14 01:07:22;;;;;;;5.07;3.35;;;;;;;12.29;100.00;95414.88;1021253;29;20436;-68
2021/07/14 01:08:13;;;;;;;3.15;2.58;;;;;;;12.27;100.00;95409.94;1023158;29;20322;-68
2021/07/14 01:08:55;;;;;;;6.32;3.00;;;;;;;12.28;100.00;95413.34;1032586;28;20330;-68
2021/07/14 01:09:56;;;;;;;7.32;3.00;;;;;;;12.28;100.00;95413.34;1022994;28;20473;-67
2021/07/14 01:10:30;;;;;;;13.02;4.05;;;;;;;12.26;100.00;95420.72;1016301;29;20282;-67
2021/07/14 01:11:03;;;;;;;5.57;3.08;;;;;;;12.27;100.00;95422.28;1019430;28;20051;-69
2021/07/14 01:11:34;;;;;;;5.18;2.30;;;;;;;12.27;100.00;95417.00;1027075;28;20452;-68
2021/07/14 01:12:28;;;;;;;5.55;3.08;;;;;;;12.22;100.00;95417.09;1025829;28;20309;-68
2021/07/14 01:13:04;;;;;;;6.70;2.72;;;;;;;12.27;100.00;95428.34;1027397;28;20026;-68
2021/07/14 01:14:00;;;;;;;7.13;2.90;;;;;;;12.25;100.00;95425.19;1027994;28;20268;-67
2021/07/14 01:15:05;;;;;;;6.18;2.60;;;;;;;12.24;100.00;95431.53;1020226;28;20295;-68
2021/07/14 01:15:37;;;;;;;6.00;2.10;;;;;;;12.21;100.00;95412.88;1027135;28;20271;-68
2021/07/14 01:16:12;;;;;;;6.40;2.88;;;;;;;12.23;100.00;95426.53;1027957;28;20266;-67
2021/07/14 01:16:42;;;;;;;4.93;2.60;;;;;;;12.19;100.00;95418.41;1027180;28;20776;-68
2021/07/14 01:17:13;;;;;;;11.32;3.05;;;;;;;12.19;100.00;95415.78;1027032;28;20385;-67
2021/07/14 01:18:10;;;;;;;8.57;2.80;;;;;;;12.20;100.00;95429.72;1019283;29;20418;-68
2021/07/14 01:18:55;;;;;;;7.55;2.33;;;;;;;12.21;100.00;95428.69;1006147;29;20582;-69
2021/07/14 01:19:51;;;;;;;4.25;2.80;;;;;;;12.21;100.00;95431.31;1016270;28;20265;-67
2021/07/14 01:20:56;;;;;;;4.57;2.35;;;;;;;12.20;100.00;95427.09;1029472;28;20402;-67
2021/07/14 01:21:31;;;;;;;9.88;3.00;;;;;;;12.21;100.00;95426.81;1029649;28;20274;-67
2021/07/14 01:22:07;;;;;;;3.10;2.58;;;;;;;12.21;100.00;95423.41;1022956;28;20266;-67
2021/07/14 01:23:05;;;;;;;11.80;2.92;;;;;;;12.17;100.00;95417.94;1027215;28;20298;-67
2021/07/14 01:23:59;;;;;;;4.03;2.72;;;;;;;12.16;100.00;95418.19;1027098;28;20266;-67
2021/07/14 01:24:36;;;;;;;5.68;2.13;;;;;;;12.19;100.00;95409.75;1018906;29;20275;-67
2021/07/14 01:25:11;;;;;;;4.13;2.90;;;;;;;12.18;100.00;95408.19;1015241;29;20642;-67
2021/07/14 01:26:12;;;;;;;3.80;2.28;;;;;;;12.16;100.00;95412.94;1013553;29;20657;-68
2021/07/14 01:27:07;;;;;;;;;;;;;;;12.16;100.00;95418.97;1024219;28;20274;-67
2021/07/14 01:27:38;;;;;;;6.43;2.38;;;;;;;12.08;100.00;95403.81;1033865;28;19906;-67
2021/07/14 01:28:08;;;;;;;6.75;1.90;;;;;;;12.13;100.00;95410.84;1027092;28;20358;-68
2021/07/14 01:28:41;;;;;;;5.00;2.60;;;;;;;12.11;100.00;95419.03;1026981;28;20834;-67
2021/07/14 01:29:14;;;;;;;2.55;2.30;;;;;;;12.09;100.00;95420.38;1022591;29;20116;-67
2021/07/14 01:29:51;;;;;;;4.93;2.42;;;;;;;12.10;100.00;95421.94;1016587;29;20339;-67
2021/07/14 01:30:21;;;;;;;3.42;2.85;;;;;;;12.09;100.00;95426.41;1015200;29;20300;-67
2021/07/14 01:30:52;;;;;;;3.40;1.92;;;;;;;12.09;100.00;95426.41;1012187;29;20284;-68
2021/07/14 01:31:22;;;;;;;3.95;2.35;;;;;;;12.07;100.00;95422.50;1013488;29;20472;-67
2021/07/14 01:31:53;;;;;;;5.50;2.55;;;;;;;12.05;100.00;95424.63;1014415;29;20031;-67
2021/07/14 01:32:26;;;;;;;4.00;2.10;;;;;;;12.06;100.00;95426.97;1018754;29;20031;-68
2021/07/14 01:32:56;;;;;;;4.15;2.38;;;;;;;12.02;100.00;95420.72;1015609;29;20524;-67
2021/07/14 01:33:30;;;;;;;4.00;2.10;;;;;;;12.06;100.00;95424.34;1019239;29;20269;-68
2021/07/14 01:34:02;;;;;;;8.48;2.15;;;;;;;12.03;100.00;95422.28;1020649;28;20020;-68
2021/07/14 01:34:32;;;;;;;4.07;2.28;;;;;;;11.92;100.00;95399.78;1023585;28;20266;-68
2021/07/14 01:35:06;;;;;;;3.83;2.00;;;;;;;12.03;100.00;95417.78;1019299;29;20268;-67
2021/07/14 01:35:40;;;;;;;4.10;2.17;;;;;;;12.08;100.00;95429.34;1014828;29;20103;-67
2021/07/14 01:36:13;;;;;;;7.95;2.35;;;;;;;12.08;100.00;95426.72;1019077;29;20681;-67
2021/07/14 01:36:45;;;;;;;3.45;2.22;;;;;;;12.08;100.00;95418.81;1022803;28;20275;-68
2021/07/14 01:37:16;;;;;;;3.28;1.75;;;;;;;12.06;100.00;95415.69;1022997;29;20617;-67
2021/07/14 01:37:47;;;;;;;5.28;2.00;;;;;;;12.00;100.00;95414.94;1019081;29;20332;-67
2021/07/14 01:38:21;;;;;;;3.53;2.13;;;;;;;12.05;100.00;95419.38;1015560;29;20294;-67
2021/07/14 01:38:52;;;;;;;5.82;2.55;;;;;;;12.05;100.00;95414.91;1014970;29;20394;-67
2021/07/14 01:39:23;;;;;;;2.00;1.80;;;;;;;12.03;100.00;95423.03;1019168;29;20441;-67
2021/07/14 01:39:55;;;;;;;4.80;2.25;;;;;;;12.03;100.00;95419.63;1022930;29;20091;-67
2021/07/14 01:40:25;;;;;;;5.65;2.10;;;;;;;12.02;100.00;95418.84;1019390;29;20267;-68
2021/07/14 01:40:56;;;;;;;13.40;2.30;;;;;;;12.02;100.00;95429.38;1014258;29;20264;-68
2021/07/14 01:41:28;;;;;;;4.90;2.35;;;;;;;12.05;100.00;95424.63;1015316;29;20035;-67
2021/07/14 01:41:58;;;;;;;3.55;2.35;;;;;;;12.03;100.00;95423.03;1014655;29;20047;-67
2021/07/14 01:42:29;;;;;;;5.47;2.13;;;;;;;12.04;100.00;95421.22;1018646;29;20271;-67
2021/07/14 01:43:02;;;;;;;4.03;2.20;;;;;;;12.05;100.00;95425.41;1018956;29;20027;-67
2021/07/14 01:43:37;;;;;;;7.18;2.00;;;;;;;12.05;100.00;95420.16;1019031;29;20669;-67
2021/07/14 01:44:08;;;;;;;6.18;2.67;;;;;;;12.03;100.00;95419.63;1018401;29;20495;-67
2021/07/14 01:44:38;;;;;;;8.75;2.53;;;;;;;11.97;100.00;95402.34;1014513;29;20280;-67
2021/07/14 01:45:09;;;;;;;6.35;2.20;;;;;;;12.03;100.00;95420.41;1016072;29;20035;-65
2021/07/14 01:45:40;;;;;;;6.32;2.28;;;;;;;12.04;100.00;95418.59;1014778;29;20092;-67
2021/07/14 01:46:10;;;;;;;4.53;2.03;;;;;;;12.06;100.00;95410.41;1018612;29;20027;-68
2021/07/14 01:46:41;;;;;;;2.83;2.10;;;;;;;12.06;100.00;95413.03;1022947;28;20310;-68
2021/07/14 01:47:11;;;;;;;6.28;2.15;;;;;;;12.07;100.00;95412.75;1026703;28;20030;-67
2021/07/14 01:47:42;;;;;;;6.18;2.08;;;;;;;12.07;100.00;95409.34;1024691;28;20102;-68
2021/07/14 01:48:13;;;;;;;6.22;2.35;;;;;;;12.06;100.00;95410.41;1022621;29;20532;-67
2021/07/14 01:48:44;;;;;;;9.15;2.42;;;;;;;12.04;100.00;95400.19;1018830;29;20028;-67
2021/07/14 01:49:16;;;;;;;6.35;2.28;;;;;;;12.05;100.00;95396.50;1018909;28;20275;-67
2021/07/14 01:49:47;;;;;;;4.32;2.13;;;;;;;12.05;100.00;95401.75;1018627;29;20028;-67
2021/07/14 01:50:17;;;;;;;6.25;2.10;;;;;;;12.05;100.00;95406.22;1010965;29;20273;-68
2021/07/14 01:50:48;;;;;;;3.35;1.85;;;;;;;12.05;100.00;95398.34;1014947;29;20040;-68
2021/07/14 01:51:19;;;;;;;3.05;1.77;;;;;;;11.99;100.00;95389.72;1018753;29;20038;-67
2021/07/14 01:51:51;;;;;;;3.22;2.33;;;;;;;12.01;100.00;95388.38;1017562;29;20032;-64
2021/07/14 01:52:23;;;;;;;4.28;2.20;;;;;;;12.04;100.00;95392.31;1018526;29;20035;-68
2021/07/14 01:52:54;;;;;;;5.63;2.13;;;;;;;12.00;100.00;95386.00;1022508;28;20262;-68
2021/07/14 01:53:24;;;;;;;3.35;1.92;;;;;;;12.04;100.00;95400.19;1019287;29;20267;-67
2021/07/14 01:53:57;;;;;;;9.43;2.58;;;;;;;11.95;100.00;95383.44;1022707;29;20053;-67
2021/07/14 01:54:28;;;;;;;7.97;3.15;;;;;;;11.96;100.00;95390.28;1024425;28;20032;-67
2021/07/14 01:55:00;;;;;;;5.60;2.65;;;;;;;11.99;100.00;95395.75;1026624;28;20827;-67
2021/07/14 01:55:31;;;;;;;4.22;1.73;;;;;;;11.97;100.00;95391.81;1030693;28;20027;-68
2021/07/14 01:56:08;;;;;;;2.33;1.90;;;;;;;12.01;100.00;95398.91;1018161;29;20319;-67
2021/07/14 01:56:39;;;;;;;4.10;2.25;;;;;;;11.96;100.00;95388.41;1020140;29;20267;-67
2021/07/14 01:57:10;;;;;;;7.18;2.40;;;;;;;12.00;100.00;95397.34;1014693;29;20268;-68
2021/07/14 01:57:40;;;;;;;4.43;2.42;;;;;;;11.98;100.00;95399.44;1027473;28;20038;-68
2021/07/14 01:58:13;;;;;;;5.05;2.17;;;;;;;11.94;100.00;95387.94;1025799;28;20030;-67
2021/07/14 01:58:44;;;;;;;4.30;2.20;;;;;;;11.97;100.00;95397.91;1022620;29;20113;-67
2021/07/14 01:59:15;;;;;;;3.78;1.92;;;;;;;11.98;100.00;95396.81;1014382;29;20272;-67
2021/07/14 01:59:45;;;;;;;8.07;2.42;;;;;;;12.00;100.00;95394.72;1014150;29;20048;-67
2021/07/14 02:00:15;;;;;;;5.53;2.03;;;;;;;11.84;100.00;95380.16;1011432;29;20032;-67
2021/07/14 02:00:47;;;;;;;8.23;2.70;;;;;;;11.98;100.00;95386.31;1013640;29;20040;-67
2021/07/14 02:01:19;;;;;;;4.78;2.20;;;;;;;11.96;100.00;95388.41;1019085;29;20509;-66
2021/07/14 02:01:50;;;;;;;4.22;1.85;;;;;;;11.98;100.00;95385.53;1019453;29;20282;-67
2021/07/14 02:02:23;;;;;;;2.40;2.05;;;;;;;11.99;100.00;95384.44;1013863;29;20276;-68
2021/07/14 02:03:15;;;;;;;2.45;1.70;;;;;;;11.96;100.00;95374.50;1018713;29;20034;-67
2021/07/14 02:04:38;;;;;;;3.85;1.77;;;;;;;11.97;100.00;95376.84;1018674;29;20627;-68
2021/07/14 02:05:09;;;;;;;4.90;2.00;;;;;;;11.94;100.00;95364.25;1020608;29;20342;-67
2021/07/14 02:05:42;;;;;;;4.40;1.73;;;;;;;11.93;100.00;95367.94;1018870;29;20287;-67
2021/07/14 02:06:15;;;;;;;1.70;1.40;;;;;;;11.94;100.00;95360.84;1017508;29;20016;-68
2021/07/14 02:06:46;;;;;;;2.42;2.10;;;;;;;11.94;100.00;95366.91;1018791;29;20659;-66
2021/07/14 02:07:24;;;;;;;4.10;2.08;;;;;;;11.94;100.00;95360.84;1022618;29;20262;-67
2021/07/14 02:07:57;;;;;;;8.40;2.03;;;;;;;11.95;100.00;95363.19;1026513;28;20250;-66
2021/07/14 02:08:28;;;;;;;6.75;2.33;;;;;;;11.95;100.00;95352.69;1022321;28;20278;-66
2021/07/14 02:09:01;;;;;;;2.17;1.90;;;;;;;11.96;100.00;95350.81;1018757;29;20295;-66
2021/07/14 02:09:35;;;;;;;5.75;2.55;;;;;;;11.89;100.00;95343.28;1015901;29;20433;-65
2021/07/14 02:10:06;;;;;;;3.13;1.67;;;;;;;11.92;100.00;95360.34;1014079;29;20316;-67
2021/07/14 02:10:36;;;;;;;3.08;1.85;;;;;;;11.92;100.00;95360.34;1016921;29;20336;-67
2021/07/14 02:11:07;;;;;;;3.28;1.85;;;;;;;11.92;100.00;95355.09;1015701;29;20036;-67
2021/07/14 02:11:38;;;;;;;4.45;2.20;;;;;;;11.94;100.00;95361.63;1014132;29;20024;-66
2021/07/14 02:12:16;;;;;;;3.75;1.80;;;;;;;11.91;100.00;95354.31;1017981;29;20055;-68
2021/07/14 02:12:47;;;;;;;5.18;2.00;;;;;;;11.89;100.00;95350.38;1017247;29;20024;-67
2021/07/14 02:13:18;;;;;;;7.15;2.35;;;;;;;11.92;100.00;95360.34;1019257;29;20279;-67
2021/07/14 02:13:50;;;;;;;9.45;2.30;;;;;;;11.92;100.00;95355.09;1016893;29;20028;-67
2021/07/14 02:14:30;;;;;;;8.65;1.98;;;;;;;11.89;100.00;95351.16;1014536;29;20264;-68
2021/07/14 02:15:06;;;;;;;2.90;1.60;;;;;;;11.93;100.00;95364.53;1018455;29;20377;-68
2021/07/14 02:15:36;;;;;;;3.63;2.20;;;;;;;11.90;100.00;95355.34;1022535;29;20042;-67
2021/07/14 02:16:10;;;;;;;2.55;2.10;;;;;;;11.90;100.00;95359.84;1022756;29;20254;-67
2021/07/14 02:16:40;;;;;;;7.60;2.10;;;;;;;11.89;100.00;95348.53;1018308;28;20024;-67
2021/07/14 02:17:12;;;;;;;5.40;2.20;;;;;;;11.91;100.00;95356.94;1018626;29;20272;-67
2021/07/14 02:18:02;;;;;;;5.15;1.90;;;;;;;11.91;100.00;95349.06;1018842;29;20020;-67
2021/07/14 02:18:39;;;;;;;6.38;2.00;;;;;;;11.89;100.00;95359.06;1025035;28;20816;-67
2021/07/14 02:19:10;;;;;;;8.25;1.90;;;;;;;11.88;100.00;95357.50;1018603;29;20298;-67
2021/07/14 02:19:45;;;;;;;3.72;2.40;;;;;;;11.87;100.00;95352.50;1014717;29;20287;-68
2021/07/14 02:20:16;;;;;;;3.47;2.03;;;;;;;11.88;100.00;95352.22;1018519;28;20072;-68
2021/07/14 02:20:47;;;;;;;4.90;2.05;;;;;;;11.89;100.00;95355.63;1018684;29;20279;-67
2021/07/14 02:21:17;;;;;;;5.35;2.28;;;;;;;11.89;100.00;95360.91;1011190;29;20297;-67
2021/07/14 02:21:48;;;;;;;3.17;2.10;;;;;;;11.87;100.00;95355.13;1011482;29;20604;-67
2021/07/14 02:22:18;;;;;;;4.57;1.88;;;;;;;11.84;100.00;95355.66;1014544;29;20471;-68
2021/07/14 02:22:50;;;;;;;6.45;2.50;;;;;;;11.90;100.00;95357.97;1014669;29;20020;-67
2021/07/14 02:23:20;;;;;;;3.17;2.03;;;;;;;11.91;100.00;95366.69;1014560;29;20036;-68
2021/07/14 02:23:51;;;;;;;3.58;2.00;;;;;;;11.89;100.00;95359.06;1014901;29;20264;-67
2021/07/14 02:24:21;;;;;;;3.97;2.20;;;;;;;11.91;100.00;95362.19;1018968;29;20020;-67
2021/07/14 02:24:51;;;;;;;2.88;2.10;;;;;;;11.90;100.00;95359.84;1014704;29;20020;-68
2021/07/14 02:25:22;;;;;;;5.63;2.25;;;;;;;11.88;100.00;95356.72;1014654;29;20024;-67
2021/07/14 02:25:53;;;;;;;6.05;2.33;;;;;;;11.94;100.00;95366.91;1018876;29;20036;-67
2021/07/14 02:26:24;;;;;;;5.45;2.17;;;;;;;11.92;100.00;95366.38;1019414;28;20186;-69
2021/07/14 02:26:57;;;;;;;2.65;2.20;;;;;;;11.95;100.00;95367.69;1030509;28;20175;-69
2021/07/14 02:27:27;;;;;;;5.05;2.63;;;;;;;11.94;100.00;95366.13;1034713;28;20069;-67
2021/07/14 02:27:57;;;;;;;2.53;2.30;;;;;;;11.95;100.00;95368.44;1034701;28;20326;-68
2021/07/14 02:28:28;;;;;;;3.35;2.00;;;;;;;11.90;100.00;95368.50;1034509;28;20065;-67
2021/07/14 02:28:59;;;;;;;3.83;2.20;;;;;;;11.93;100.00;95375.81;1030574;28;20069;-67
2021/07/14 02:29:29;;;;;;;2.92;2.17;;;;;;;11.95;100.00;95383.44;1026589;28;20121;-67
2021/07/14 02:30:00;;;;;;;4.20;2.38;;;;;;;11.95;100.00;95378.97;1026852;28;20203;-68
2021/07/14 02:30:30;;;;;;;6.05;3.10;;;;;;;11.96;100.00;95379.75;1022334;28;20035;-68
2021/07/14 02:31:01;;;;;;;7.65;2.72;;;;;;;11.96;100.00;95374.50;1022424;28;20084;-68
2021/07/14 02:31:32;;;;;;;6.35;2.40;;;;;;;11.99;100.00;95376.56;1026643;28;20035;-67
2021/07/14 02:32:03;;;;;;;4.65;2.63;;;;;;;11.97;100.00;95371.59;1021613;28;20030;-67
2021/07/14 02:32:34;;;;;;;8.45;2.58;;;;;;;11.95;100.00;95373.72;1022982;28;20338;-68
2021/07/14 02:33:06;;;;;;;3.95;2.35;;;;;;;11.96;100.00;95379.75;1026502;28;20266;-67
2021/07/14 02:33:36;;;;;;;4.00;2.78;;;;;;;11.95;100.00;95373.72;1022488;28;20038;-66
2021/07/14 02:34:08;;;;;;;3.38;2.22;;;;;;;11.96;100.00;95380.53;1019008;29;20644;-67
2021/07/14 02:34:38;;;;;;;6.40;2.17;;;;;;;11.94;100.00;95372.16;1018734;29;20039;-65
2021/07/14 02:35:09;;;;;;;4.15;2.10;;;;;;;11.97;100.00;95376.06;1019015;29;20274;-67
2021/07/14 02:35:43;;;;;;;5.00;2.13;;;;;;;11.94;100.00;95374.78;1023133;28;20031;-68
2021/07/14 02:36:14;;;;;;;5.38;2.20;;;;;;;11.95;100.00;95378.97;1018689;29;20272;-67
2021/07/14 02:36:44;;;;;;;7.50;2.67;;;;;;;11.97;100.00;95376.06;1022920;29;20694;-67
2021/07/14 02:37:24;;;;;;;4.55;2.22;;;;;;;11.96;100.00;95377.91;1019892;29;20019;-67
2021/07/14 02:38:14;;;;;;;7.85;2.50;;;;;;;11.95;100.00;95376.34;1026688;28;20023;-68
2021/07/14 02:38:48;;;;;;;2.58;1.85;;;;;;;11.93;100.00;95370.56;1018768;29;20311;-67
2021/07/14 02:39:18;;;;;;;3.78;2.63;;;;;;;11.95;100.00;95373.72;1019531;29;20122;-68
2021/07/14 02:39:52;;;;;;;4.63;2.92;;;;;;;11.94;100.00;95366.91;1022797;29;20779;-67
2021/07/14 02:40:35;;;;;;;4.90;2.55;;;;;;;11.98;100.00;95378.41;1022461;29;20051;-65
2021/07/14 02:41:15;;;;;;;6.38;2.90;;;;;;;11.98;100.00;95370.53;1018610;29;20264;-68
2021/07/14 02:41:54;;;;;;;5.85;2.50;;;;;;;11.94;100.00;95369.53;1018132;29;20832;-67
2021/07/14 02:42:29;;;;;;;14.45;4.47;;;;;;;11.94;100.00;95374.00;1022160;28;20113;-67
2021/07/14 02:43:03;;;;;;;5.30;2.35;;;;;;;11.90;100.00;95379.00;1022666;29;20274;-67
2021/07/14 02:43:35;;;;;;;6.43;2.40;;;;;;;11.90;100.00;95384.28;1018608;29;20264;-68
2021/07/14 02:44:10;;;;;;;4.30;2.00;;;;;;;11.87;100.00;95374.34;1026362;28;20694;-68
2021/07/14 02:44:42;;;;;;;4.10;1.98;;;;;;;11.90;100.00;95376.38;1022762;29;20297;-66